Nordavia B735 at Murmansk on Dec 7th 2016, overran runway on landing

Last Update: February 4, 2017 / 16:28:14 GMT/Zulu time

Bookmark this article
Incident Facts

Date of incident
Dec 7, 2016

Classification
Incident

Airline
Nordavia

Flight number
5N-521

Destination
Murmansk, Russia

Aircraft Registration
VP-BQI

Aircraft Type
Boeing 737-500

ICAO Type Designator
B735

Airport ICAO Code
ULMM

A Nordavia Boeing 737-500, registration VP-BQI performing flight 5N-521 from Moscow Domodedovo to Murmansk (Russia) with 132 passengers and 5 crew, landed on Murmansk's runway 31 at 23:33L (20:33Z) but overran the end of the runway by 73 meters and came to a stop with the main gear still on the paved surface of the runway end safety area and the nose gear on soft ground. No injuries occurred, the aircraft received no damage.

The airport was closed for about 3.5 hours as result of the occurrence.

The occurrence aircraft remained on the ground for 33 hours before resuming service.

Russia's Northwest Transport Investigation Department reported that none of the 132 passengers and 5 crew needed medical care, the aircraft received no damage, when it overran the runway end by 73 meters.

Russia's Rosaviatsia (CAA) reported in their December bulletin that the aircraft overran the runway end by 73 meters but did not receive any damage. The occurrence was caused by a combination of factors: ATC reported a braking action that was insufficient for proper preparation for landing, non-use of maximum revserse during the first half of the rollout and incorrect assessment of landing distance remaining by the captain.

Metars:
ULMM 072200Z 14001MPS 9999 BKN024 M10/M12 Q0994 R31/450342 NOSIG RMK QFE738
ULMM 072130Z VRB01MPS 9999 BKN024 M11/M12 Q0994 R31/450342 NOSIG RMK QFE738
ULMM 072100Z VRB01MPS 9999 BKN024 M10/M12 Q0994 R31/450342 NOSIG RMK QFE738
ULMM 072030Z VRB01MPS 9999 BKN024 M10/M12 Q0994 R31/450342 NOSIG RMK QFE738
ULMM 072000Z VRB01MPS 9999 BKN022 M10/M12 Q0994 R31/450342 NOSIG RMK QFE739
ULMM 071930Z 16002MPS 9999 BKN022 M10/M12 Q0994 R31/450342 NOSIG RMK QFE739
ULMM 071900Z 20001MPS 9999 BKN022 M12/M13 Q0994 R31/450342 NOSIG RMK QFE739
ULMM 071830Z 00000MPS 9999 BKN023 M13/M15 Q0994 R31/450342 NOSIG RMK QFE739
ULMM 071800Z 16001MPS 9999 BKN023 M13/M14 Q0994 R31/450342 NOSIG RMK QFE738
ULMM 071730Z 00000MPS 9000 BKN024 M12/M14 Q0994 R31/450342 NOSIG RMK QFE739
ULMM 071700Z 00000MPS 9000 BKN026 M11/M13 Q0994 R31/450342 NOSIG RMK QFE738
Incident Facts

Date of incident
Dec 7, 2016

Classification
Incident

Airline
Nordavia

Flight number
5N-521

Destination
Murmansk, Russia

Aircraft Registration
VP-BQI

Aircraft Type
Boeing 737-500

ICAO Type Designator
B735

Airport ICAO Code
ULMM

This article is published under license from Avherald.com. © of text by Avherald.com.
Article source

You can read 2 more free articles without a subscription.

Subscribe now and continue reading without any limits!

Are you a subscriber? Login
Subscribe

Read unlimited articles and receive our daily update briefing. Gain better insights into what is happening in commercial aviation safety.

Free newsletter

Want to know more and stay ahead? Get our free weekly newsletter and join 5465 existing subscribers.

By subscribing, you accept our terms and conditions and confirm that you've read our privacy policy.

Send tip

Support AeroInside by sending a small tip amount.

Related articles

Newest articles

Subscribe today

Are you researching aviation incidents? Get access to AeroInside Insights, unlimited read access and receive the daily newsletter.

Pick your plan and subscribe

Partner

Blockaviation logo

A new way to document and demonstrate airworthiness compliance and aircraft value. Find out more.

Virtual Speech logo

ELITE Simulation Solutions is a leading global provider of Flight Simulation Training Devices, IFR training software as well as flight controls and related services. Find out more.

Get updates

Never miss an article from AeroInside. Subscribe to our free weekly newsletter and join 5465 existing subscribers.

By subscribing, you accept our terms and conditions and that you've read our privacy policy.

AeroInside Blog
Popular aircraft
Airbus A320
Boeing 737-800
Boeing 737-800 MAX
Popular airlines
American Airlines
United
Delta
Air Canada
Lufthansa
British Airways